Time;durP1;ratioP1;P1;durP2;ratioP2;P2;SDS_P1;SDS_P2;PMS_P1;PMS_P2;Temp;Humidity;BMP_temperature;BMP_pressure;BME280_temperature;BME280_humidity;BME280_pressure;Samples;Min_cycle;Max_cycle;Signal;HPM_P1;HPM_P2
2022/12/17 13:08:20;;;;;;;44.22;28.73;;;16.20;66.60;;;;;;4144609;28;20064;-65
2022/12/17 13:11:27;;;;;;;44.05;28.95;;;16.30;66.20;;;;;;4142875;28;20530;-65
2022/12/17 13:14:14;;;;;;;47.72;30.25;;;16.30;66.20;;;;;;4146811;28;20150;-65
2022/12/17 13:16:59;;;;;;;45.78;29.15;;;16.40;66.30;;;;;;4141385;28;20052;-66
2022/12/17 13:19:43;;;;;;;43.83;28.60;;;16.40;66.30;;;;;;4153017;28;20094;-66
2022/12/17 13:22:29;;;;;;;43.58;29.65;;;16.50;66.00;;;;;;4150040;28;20520;-66
2022/12/17 13:25:16;;;;;;;43.53;29.23;;;16.50;65.90;;;;;;4146691;28;21081;-67
2022/12/17 13:27:57;;;;;;;46.72;29.35;;;16.50;66.10;;;;;;4148842;28;20057;-67
2022/12/17 13:30:39;;;;;;;43.70;28.90;;;16.60;66.00;;;;;;4147316;28;20525;-67
2022/12/17 13:33:29;;;;;;;45.80;29.48;;;16.60;66.10;;;;;;4145042;28;20155;-66
2022/12/17 13:36:21;;;;;;;47.17;28.60;;;16.60;66.00;;;;;;4151092;28;20185;-59
2022/12/17 13:39:08;;;;;;;43.63;28.83;;;16.60;66.00;;;;;;4153119;28;20073;-60
2022/12/17 13:41:54;;;;;;;44.28;28.48;;;16.60;66.10;;;;;;4156426;28;20111;-59
2022/12/17 13:44:40;;;;;;;44.28;28.58;;;16.60;66.20;;;;;;4141308;28;20053;-59
2022/12/17 13:47:24;;;;;;;44.42;29.52;;;16.60;66.10;;;;;;4141151;28;20061;-67
2022/12/17 13:50:20;;;;;;;46.40;29.52;;;16.50;66.20;;;;;;4150475;28;20060;-66
2022/12/17 13:53:18;;;;;;;46.60;28.65;;;16.50;66.50;;;;;;4148903;28;20056;-67
2022/12/17 13:55:58;;;;;;;44.42;29.98;;;16.50;67.30;;;;;;4141097;28;20052;-66
2022/12/17 13:58:39;;;;;;;46.92;30.40;;;16.50;67.00;;;;;;4142647;28;20111;-66
2022/12/17 14:01:21;;;;;;;45.35;29.73;;;16.40;67.10;;;;;;4144275;28;20126;-66
2022/12/17 14:04:02;;;;;;;45.33;30.08;;;16.40;67.00;;;;;;4147704;28;20053;-65
2022/12/17 14:06:47;;;;;;;43.88;29.08;;;16.30;67.30;;;;;;4155252;28;20079;-65
2022/12/17 14:09:35;;;;;;;47.13;28.88;;;16.20;67.50;;;;;;4140932;28;20073;-66
2022/12/17 14:12:20;;;;;;;43.53;28.88;;;16.10;68.10;;;;;;4146971;28;20056;-68
2022/12/17 14:15:07;;;;;;;44.97;30.40;;;16.10;68.60;;;;;;4153920;28;20623;-61
2022/12/17 14:17:49;;;;;;;46.80;28.88;;;16.20;68.40;;;;;;4150305;28;20060;-59
2022/12/17 14:20:32;;;;;;;43.05;29.08;;;16.20;67.90;;;;;;4144135;28;20616;-59
2022/12/17 14:23:19;;;;;;;45.65;29.55;;;16.20;68.10;;;;;;4143415;28;20064;-60
2022/12/17 14:26:02;;;;;;;48.22;30.80;;;16.20;68.50;;;;;;4143509;28;20099;-58
2022/12/17 14:28:47;;;;;;;46.58;30.58;;;16.20;68.60;;;;;;4154613;28;20056;-59
2022/12/17 14:31:30;;;;;;;45.28;29.52;;;16.30;68.10;;;;;;4161602;28;20126;-60
2022/12/17 14:34:11;;;;;;;44.90;28.42;;;16.30;68.40;;;;;;4152175;28;20075;-59
2022/12/17 14:36:57;;;;;;;46.60;29.55;;;16.30;68.50;;;;;;4161774;28;20504;-59
2022/12/17 14:39:45;;;;;;;46.00;29.23;;;16.20;69.10;;;;;;4161965;28;20064;-59
2022/12/17 14:42:29;;;;;;;45.47;28.45;;;16.10;68.00;;;;;;4162273;28;20119;-59
2022/12/17 14:45:23;;;;;;;47.72;29.05;;;16.10;69.60;;;;;;4161804;28;20053;-59
2022/12/17 14:48:05;;;;;;;43.05;25.42;;;16.10;68.60;;;;;;4161684;28;20060;-59
2022/12/17 14:50:55;;;;;;;44.25;28.85;;;16.20;68.90;;;;;;4162168;28;20048;-59
2022/12/17 14:53:36;;;;;;;47.10;30.25;;;16.10;68.40;;;;;;4161876;28;20114;-58
2022/12/17 14:56:23;;;;;;;45.35;27.90;;;16.20;68.70;;;;;;4161975;28;20107;-59
2022/12/17 14:59:05;;;;;;;46.47;30.77;;;16.20;68.60;;;;;;4161859;28;20052;-67
2022/12/17 15:01:47;;;;;;;45.13;28.92;;;16.10;69.20;;;;;;4162228;28;20053;-66
2022/12/17 15:04:33;;;;;;;44.10;28.42;;;16.10;68.70;;;;;;4161913;28;20056;-66
2022/12/17 15:07:14;;;;;;;;;;;16.10;68.80;;;;;;4161040;28;20107;-66
2022/12/17 15:09:58;;;;;;;45.20;27.00;;;16.00;68.80;;;;;;4145324;28;20333;-59
2022/12/17 15:12:40;;;;;;;41.03;26.63;;;16.00;69.20;;;;;;4145502;28;20087;-59
2022/12/17 15:15:22;;;;;;;42.65;27.88;;;15.90;69.60;;;;;;4145329;28;20061;-59
2022/12/17 15:18:03;;;;;;;42.72;27.95;;;15.90;70.40;;;;;;4158023;28;20044;-59
2022/12/17 15:20:44;;;;;;;44.72;28.17;;;16.00;69.50;;;;;;4161539;28;20060;-59
2022/12/17 15:23:25;;;;;;;;;;;16.10;69.50;;;;;;4161639;28;20103;-59
2022/12/17 15:26:07;;;;;;;43.45;28.10;;;16.10;69.40;;;;;;4160863;28;19928;-58
2022/12/17 15:28:47;;;;;;;47.67;27.27;;;16.10;69.40;;;;;;4161438;28;20063;-60
2022/12/17 15:31:29;;;;;;;46.63;28.33;;;16.20;69.20;;;;;;4161087;28;20052;-60
2022/12/17 15:34:15;;;;;;;47.58;26.95;;;16.30;69.20;;;;;;4161246;28;21959;-60
2022/12/17 15:36:56;;;;;;;47.28;29.50;;;16.40;68.80;;;;;;4161493;28;20064;-58
2022/12/17 15:39:37;;;;;;;47.20;29.50;;;16.40;68.60;;;;;;4144942;28;20069;-63
2022/12/17 15:45:16;;;;;;;47.05;28.52;;;16.40;64.80;;;;;;4160569;28;20119;-64
2022/12/17 15:47:58;;;;;;;42.03;25.73;;;16.30;64.50;;;;;;4160820;28;20045;-63
2022/12/17 15:50:40;;;;;;;44.63;26.00;;;16.30;64.60;;;;;;4160696;28;20071;-64
2022/12/17 15:53:21;;;;;;;42.97;24.52;;;16.30;64.30;;;;;;4160833;28;20064;-63
2022/12/17 15:56:03;;;;;;;44.00;26.58;;;16.40;64.10;;;;;;4159252;28;20052;-63
2022/12/17 15:58:44;;;;;;;43.38;25.58;;;16.50;63.40;;;;;;4160051;28;20172;-64
2022/12/17 16:01:25;;;;;;;48.45;27.58;;;16.50;63.20;;;;;;4159992;28;20159;-64
2022/12/17 16:04:08;;;;;;;44.67;26.83;;;16.50;62.80;;;;;;4160612;28;20060;-63
2022/12/17 16:06:56;;;;;;;47.40;28.48;;;16.50;62.50;;;;;;4160137;28;20057;-64
2022/12/17 16:09:37;;;;;;;44.60;27.20;;;16.40;62.70;;;;;;4159100;28;20060;-62
2022/12/17 16:12:18;;;;;;;48.28;26.90;;;16.40;62.90;;;;;;4160251;28;20056;-62
2022/12/17 16:14:59;;;;;;;44.17;25.88;;;16.50;62.50;;;;;;4160051;28;20409;-63
2022/12/17 16:17:40;;;;;;;47.30;28.20;;;16.40;62.30;;;;;;4159924;28;20449;-64
2022/12/17 16:20:22;;;;;;;43.53;25.27;;;16.30;62.10;;;;;;4156677;28;20054;-64
2022/12/17 16:23:03;;;;;;;47.10;27.70;;;16.30;62.10;;;;;;4160185;28;20500;-64
2022/12/17 16:25:44;;;;;;;48.67;28.83;;;16.40;62.20;;;;;;4160095;28;20060;-63
2022/12/17 16:28:25;;;;;;;46.67;25.80;;;16.70;61.60;;;;;;4159782;28;20044;-63
2022/12/17 16:31:08;;;;;;;40.88;23.52;;;17.00;60.30;;;;;;4160188;28;20117;-63
2022/12/17 16:33:49;;;;;;;45.00;26.73;;;17.40;59.10;;;;;;4160199;28;20146;-58
2022/12/17 16:36:32;;;;;;;47.63;27.98;;;17.80;58.10;;;;;;4159678;28;20088;-63
2022/12/17 16:39:17;;;;;;;40.67;24.67;;;18.20;57.10;;;;;;4152944;28;20053;-64
2022/12/17 16:41:58;;;;;;;43.97;26.65;;;18.50;56.30;;;;;;4159895;28;20057;-58
2022/12/17 16:44:39;;;;;;;46.10;27.45;;;18.70;55.80;;;;;;4160008;28;20045;-58
2022/12/17 16:47:19;;;;;;;41.33;24.27;;;18.80;55.30;;;;;;4159656;28;20051;-58
2022/12/17 16:50:00;;;;;;;44.43;25.73;;;18.90;55.10;;;;;;4159486;28;20122;-59
2022/12/17 16:52:43;;;;;;;44.80;28.05;;;18.80;55.00;;;;;;4159837;28;20302;-58
2022/12/17 16:55:23;;;;;;;43.85;27.02;;;18.70;55.00;;;;;;4159139;28;20483;-58
2022/12/17 16:58:04;;;;;;;48.33;29.27;;;18.60;55.50;;;;;;4158924;28;20064;-57
2022/12/17 17:00:53;;;;;;;46.30;27.73;;;18.50;55.90;;;;;;4142343;28;20604;-57
2022/12/17 17:03:33;;;;;;;45.53;26.08;;;18.40;56.20;;;;;;4143748;28;20411;-57
2022/12/17 17:06:15;;;;;;;46.47;25.50;;;18.30;56.40;;;;;;4145315;28;20057;-58
2022/12/17 17:08:57;;;;;;;45.40;26.08;;;18.10;55.80;;;;;;4159174;28;20061;-59
2022/12/17 17:11:38;;;;;;;46.28;26.38;;;18.00;55.80;;;;;;4159007;28;20504;-58
2022/12/17 17:14:20;;;;;;;52.33;27.60;;;18.00;56.50;;;;;;4159035;28;20404;-59
2022/12/17 17:17:01;;;;;;;;;;;18.00;56.70;;;;;;4159427;28;20052;-60
2022/12/17 17:19:41;;;;;;;44.85;25.05;;;18.10;57.00;;;;;;4158931;28;19932;-59
2022/12/17 17:22:23;;;;;;;41.85;24.98;;;18.00;56.80;;;;;;4159475;28;20056;-60
2022/12/17 17:25:05;;;;;;;41.15;23.80;;;18.10;56.80;;;;;;4159236;28;20048;-59
2022/12/17 17:27:46;;;;;;;43.55;24.98;;;18.10;56.70;;;;;;4153772;28;20056;-61
2022/12/17 17:30:27;;;;;;;42.55;25.27;;;18.20;56.30;;;;;;4143121;28;20115;-59
2022/12/17 17:33:08;;;;;;;42.80;24.60;;;18.30;56.10;;;;;;4142717;28;20062;-62
2022/12/17 17:35:49;;;;;;;40.95;24.60;;;18.40;56.00;;;;;;4154862;28;20559;-59
2022/12/17 17:38:30;;;;;;;47.35;25.70;;;18.40;55.70;;;;;;4158637;28;20901;-61
2022/12/17 17:41:14;;;;;;;45.47;26.35;;;18.50;55.70;;;;;;4158080;28;20504;-61
2022/12/17 17:43:57;;;;;;;47.50;25.80;;;18.50;55.60;;;;;;4159099;28;20504;-62
2022/12/17 17:46:38;;;;;;;45.03;26.15;;;18.50;55.60;;;;;;4158474;28;20057;-61
2022/12/17 17:49:19;;;;;;;43.45;25.30;;;18.50;55.60;;;;;;4142623;28;20067;-62
2022/12/17 17:52:00;;;;;;;45.80;24.65;;;18.40;56.30;;;;;;4142799;28;20135;-61
2022/12/17 17:54:50;;;;;;;45.03;25.50;;;18.40;55.70;;;;;;4142602;28;20052;-61
2022/12/17 17:57:32;;;;;;;48.13;27.70;;;18.30;55.90;;;;;;4156846;28;20115;-62
2022/12/17 18:00:14;;;;;;;51.60;28.23;;;18.30;55.90;;;;;;4158360;28;20662;-61
2022/12/17 18:02:55;;;;;;;51.78;28.27;;;18.30;55.90;;;;;;4158424;28;20059;-60
2022/12/17 18:05:37;;;;;;;47.95;26.20;;;18.30;55.90;;;;;;4158403;28;20057;-67
2022/12/17 18:08:21;;;;;;;48.92;26.65;;;18.40;55.90;;;;;;4157916;28;20091;-67
2022/12/17 18:11:03;;;;;;;49.83;29.35;;;18.40;55.80;;;;;;4158586;28;20135;-69
2022/12/17 18:16:45;;;;;;;49.00;26.38;;;18.40;55.60;;;;;;4157943;28;20196;-71
2022/12/17 18:19:26;;;;;;;47.17;27.08;;;18.40;55.60;;;;;;4157402;28;20057;-70
2022/12/17 18:22:07;;;;;;;48.53;27.92;;;18.50;55.70;;;;;;4157530;28;20060;-71
2022/12/17 18:24:48;;;;;;;44.63;26.70;;;18.50;55.60;;;;;;4157412;28;20192;-69
2022/12/17 18:27:29;;;;;;;46.55;26.63;;;18.50;55.70;;;;;;4147429;28;20097;-67
2022/12/17 18:30:11;;;;;;;41.78;24.60;;;18.50;55.60;;;;;;4155834;28;20056;-68
2022/12/17 18:32:54;;;;;;;41.92;25.23;;;18.50;55.60;;;;;;4157364;28;20392;-67
2022/12/17 18:35:35;;;;;;;;;;;18.50;55.60;;;;;;4158707;28;20053;-61
2022/12/17 18:38:16;;;;;;;44.28;25.88;;;18.40;55.80;;;;;;4157509;28;20434;-62
2022/12/17 18:40:57;;;;;;;43.65;25.33;;;18.40;55.80;;;;;;4158736;28;20485;-61
2022/12/17 18:43:38;;;;;;;45.80;25.83;;;18.40;55.70;;;;;;4158386;28;20107;-61
2022/12/17 18:46:21;;;;;;;49.08;26.70;;;18.30;55.60;;;;;;4157978;28;20056;-62
2022/12/17 18:49:05;;;;;;;47.13;29.35;;;18.40;55.50;;;;;;4158733;28;20053;-62
2022/12/17 18:51:49;;;;;;;47.75;28.90;;;18.40;55.60;;;;;;4158591;28;20184;-61
2022/12/17 18:54:32;;;;;;;46.42;29.70;;;18.40;55.60;;;;;;4158447;28;20055;-62
2022/12/17 18:57:13;;;;;;;48.00;29.50;;;18.40;55.50;;;;;;4152714;28;20423;-60
2022/12/17 18:59:54;;;;;;;47.13;31.42;;;18.40;55.50;;;;;;4160592;28;20404;-65
2022/12/17 19:02:36;;;;;;;47.42;30.73;;;18.40;55.50;;;;;;4158367;28;20106;-59
2022/12/17 19:05:17;;;;;;;45.30;29.58;;;18.40;55.50;;;;;;4158423;28;20507;-59
2022/12/17 19:07:58;;;;;;;44.72;28.35;;;18.40;55.40;;;;;;4158286;28;20064;-66
2022/12/17 19:10:39;;;;;;;46.70;29.35;;;18.40;55.20;;;;;;4158387;28;20055;-59
2022/12/17 19:13:21;;;;;;;46.38;30.42;;;18.40;55.40;;;;;;4158455;28;20052;-59
2022/12/17 19:16:06;;;;;;;46.40;29.17;;;18.30;55.50;;;;;;4158144;28;20052;-66
2022/12/17 19:18:53;;;;;;;46.00;28.75;;;18.30;55.60;;;;;;4159072;28;20051;-66
2022/12/17 19:21:34;;;;;;;44.03;30.05;;;18.30;56.20;;;;;;4160499;28;20061;-60
2022/12/17 19:24:17;;;;;;;42.55;28.60;;;18.30;55.70;;;;;;4158141;28;20155;-60
2022/12/17 19:26:58;;;;;;;39.55;28.23;;;18.30;55.90;;;;;;4156152;28;20064;-59
2022/12/17 19:29:39;;;;;;;48.30;29.67;;;18.30;55.80;;;;;;4161005;28;20187;-59
2022/12/17 19:32:23;;;;;;;48.33;31.58;;;18.30;55.80;;;;;;4159755;28;20566;-59
2022/12/17 19:35:06;;;;;;;44.55;30.08;;;18.30;55.60;;;;;;4160315;28;20056;-59
2022/12/17 19:37:48;;;;;;;44.75;30.50;;;18.30;55.70;;;;;;4160511;28;20820;-62
2022/12/17 19:40:29;;;;;;;47.25;30.67;;;18.30;55.70;;;;;;4159991;28;20052;-60
2022/12/17 19:43:10;;;;;;;44.45;29.20;;;18.30;55.90;;;;;;4160373;28;20184;-62
2022/12/17 19:45:51;;;;;;;44.00;27.75;;;18.20;55.90;;;;;;4160224;28;20122;-63
2022/12/17 19:48:33;;;;;;;45.13;29.73;;;18.10;56.00;;;;;;4160176;28;20048;-59
2022/12/17 19:51:19;;;;;;;46.13;31.17;;;18.10;56.10;;;;;;4160362;28;20474;-59
2022/12/17 19:54:00;;;;;;;44.58;31.02;;;18.00;56.20;;;;;;4160539;28;20173;-61
2022/12/17 19:56:48;;;;;;;45.17;30.48;;;17.90;56.40;;;;;;4144016;28;20056;-59
2022/12/17 19:59:29;;;;;;;47.80;30.85;;;17.90;56.70;;;;;;4144544;28;20053;-60
2022/12/17 20:02:09;;;;;;;45.97;31.05;;;17.90;56.70;;;;;;4144167;28;20053;-60
2022/12/17 20:04:51;;;;;;;47.75;31.13;;;17.80;56.80;;;;;;4144227;28;20180;-62
2022/12/17 20:07:33;;;;;;;47.75;31.50;;;17.80;56.80;;;;;;4158990;28;20381;-61
2022/12/17 20:10:14;;;;;;;48.88;32.63;;;17.80;56.80;;;;;;4157192;28;20048;-61
2022/12/17 20:12:55;;;;;;;45.17;28.33;;;17.80;56.80;;;;;;4160070;28;20056;-60
2022/12/17 20:15:36;;;;;;;43.67;29.17;;;17.70;56.80;;;;;;4160123;28;20143;-59
2022/12/17 20:18:17;;;;;;;45.03;30.90;;;17.70;56.90;;;;;;4159786;28;20120;-60
2022/12/17 20:21:02;;;;;;;46.38;31.48;;;17.60;57.10;;;;;;4143542;28;20053;-62
2022/12/17 20:23:46;;;;;;;49.13;31.42;;;17.40;57.30;;;;;;4158926;28;20131;-61
2022/12/17 20:26:27;;;;;;;45.92;31.40;;;17.20;57.70;;;;;;4159744;28;20130;-63
2022/12/17 20:29:08;;;;;;;49.60;31.52;;;17.00;58.10;;;;;;4159211;28;20060;-61
2022/12/17 20:31:49;;;;;;;;;;;16.90;58.60;;;;;;4153773;28;20401;-60
2022/12/17 20:34:30;;;;;;;45.33;29.98;;;16.70;59.10;;;;;;4159683;28;19931;-61
2022/12/17 20:37:11;;;;;;;47.38;32.13;;;16.50;59.40;;;;;;4143454;28;20125;-61
2022/12/17 20:39:53;;;;;;;53.40;34.28;;;16.30;59.50;;;;;;4143803;28;20048;-59
2022/12/17 20:42:34;;;;;;;48.20;32.85;;;16.20;59.90;;;;;;4143577;28;20053;-59
2022/12/17 20:45:15;;;;;;;52.83;33.20;;;16.10;60.30;;;;;;4156918;28;20407;-61
2022/12/17 20:47:56;;;;;;;55.67;35.17;;;15.90;61.10;;;;;;4160022;28;20121;-61
2022/12/17 20:50:39;;;;;;;56.53;34.57;;;15.80;61.20;;;;;;4159316;28;20411;-59
2022/12/17 20:53:20;;;;;;;50.00;32.75;;;15.70;61.50;;;;;;4157965;28;20057;-60
2022/12/17 20:56:06;;;;;;;52.83;31.05;;;15.50;61.90;;;;;;4159871;28;20079;-60
2022/12/17 20:58:47;;;;;;;49.22;31.35;;;15.50;62.40;;;;;;4159226;28;20053;-60
2022/12/17 21:01:29;;;;;;;52.72;32.95;;;15.40;62.90;;;;;;4159839;28;20500;-60
2022/12/17 21:04:12;;;;;;;54.00;33.33;;;15.30;64.10;;;;;;4159481;28;20056;-61
2022/12/17 21:06:53;;;;;;;54.33;33.45;;;15.20;63.50;;;;;;4159273;28;20060;-60
2022/12/17 21:09:34;;;;;;;56.78;34.05;;;15.10;63.70;;;;;;4158081;28;20151;-60
2022/12/17 21:12:16;;;;;;;55.13;32.10;;;15.00;64.10;;;;;;4158308;28;20180;-59
2022/12/17 21:14:57;;;;;;;54.90;31.90;;;14.90;64.30;;;;;;4159556;28;20102;-59
2022/12/17 21:17:38;;;;;;;54.08;32.75;;;14.90;64.60;;;;;;4157424;28;20061;-60
2022/12/17 21:20:19;;;;;;;51.42;33.05;;;14.80;64.80;;;;;;4159269;28;20400;-59
2022/12/17 21:23:00;;;;;;;51.38;31.83;;;14.70;65.30;;;;;;4158620;28;20127;-59
2022/12/17 21:25:41;;;;;;;58.97;33.67;;;14.70;65.70;;;;;;4143055;28;20477;-59
2022/12/17 21:28:23;;;;;;;52.33;31.73;;;14.60;66.80;;;;;;4143242;28;20053;-58
2022/12/17 21:31:05;;;;;;;55.30;31.98;;;14.60;66.00;;;;;;4158714;28;20115;-66
2022/12/17 21:33:46;;;;;;;60.78;34.30;;;14.50;66.20;;;;;;4158998;28;20164;-66
2022/12/17 21:36:28;;;;;;;;;;;14.40;66.40;;;;;;4159901;28;20103;-68
2022/12/17 21:39:12;;;;;;;54.83;31.67;;;14.40;66.70;;;;;;4158619;28;20288;-60
2022/12/17 21:44:51;;;;;;;57.17;32.53;;;14.30;67.10;;;;;;4157710;28;20103;-59
2022/12/17 21:47:32;;;;;;;53.83;31.10;;;14.20;67.40;;;;;;4158569;28;20186;-61
2022/12/17 21:50:13;;;;;;;55.20;32.53;;;14.20;67.50;;;;;;4158681;28;20056;-62
2022/12/17 21:52:54;;;;;;;55.00;31.83;;;14.10;67.60;;;;;;4158044;28;20123;-60
2022/12/17 21:55:35;;;;;;;55.23;32.90;;;14.10;67.70;;;;;;4159365;28;20204;-60
2022/12/17 21:58:17;;;;;;;58.13;34.15;;;14.00;67.80;;;;;;4159055;28;20048;-61
2022/12/17 22:01:08;;;;;;;60.38;30.88;;;14.00;68.80;;;;;;4159541;28;20393;-61
2022/12/17 22:03:51;;;;;;;62.97;34.08;;;14.00;67.90;;;;;;4157507;28;20064;-60
2022/12/17 22:06:37;;;;;;;57.88;33.20;;;13.90;68.20;;;;;;4159184;28;20156;-60
2022/12/17 22:09:23;;;;;;;58.85;33.90;;;13.90;68.00;;;;;;4158974;28;20511;-60
2022/12/17 22:15:07;;;;;;;56.88;30.98;;;13.80;68.00;;;;;;4158441;28;20483;-65
2022/12/17 22:17:49;;;;;;;57.22;32.20;;;13.80;68.50;;;;;;4159305;28;20098;-66
2022/12/17 22:20:30;;;;;;;57.83;33.28;;;13.70;68.70;;;;;;4159366;28;20049;-66
2022/12/17 22:23:11;;;;;;;57.40;32.28;;;13.70;68.60;;;;;;4158103;28;20052;-65
2022/12/17 22:25:52;;;;;;;59.85;31.20;;;13.70;68.60;;;;;;4152139;28;20451;-65
2022/12/17 22:28:33;;;;;;;57.45;31.77;;;13.60;68.80;;;;;;4159077;28;20178;-66
2022/12/17 22:34:15;;;;;;;53.92;31.85;;;13.50;68.90;;;;;;4159970;28;20044;-65
2022/12/17 22:37:06;;;;;;;55.88;30.92;;;13.50;69.00;;;;;;4161708;28;20419;-65
2022/12/17 22:40:09;;;;;;;53.45;30.10;;;13.40;69.40;;;;;;4145410;28;20534;-64
2022/12/17 22:46:30;;;;;;;54.78;30.27;;;13.40;69.80;;;;;;4150235;28;20060;-64
2022/12/17 22:49:12;;;;;;;55.30;28.60;;;13.30;70.00;;;;;;4145766;28;20073;-64
2022/12/17 22:51:54;;;;;;;56.22;30.02;;;13.40;71.00;;;;;;4149728;28;20053;-65
2022/12/17 22:54:35;;;;;;;54.65;29.45;;;13.40;71.00;;;;;;4162077;28;20056;-60
2022/12/17 22:57:16;;;;;;;59.67;32.80;;;13.50;70.70;;;;;;4162041;28;20052;-59
2022/12/17 23:00:23;;;;;;;59.20;31.33;;;13.70;70.40;;;;;;4162032;28;20512;-64
2022/12/17 23:03:04;;;;;;;59.03;31.58;;;13.70;70.00;;;;;;4161965;28;20123;-64
2022/12/17 23:05:45;;;;;;;58.13;32.03;;;13.80;69.70;;;;;;4150005;28;20413;-59
2022/12/17 23:08:27;;;;;;;61.85;30.85;;;13.80;69.50;;;;;;4160734;28;20056;-60
2022/12/17 23:11:10;;;;;;;55.65;30.70;;;13.90;69.00;;;;;;4159232;28;20056;-60
2022/12/17 23:13:52;;;;;;;57.10;31.73;;;13.90;68.70;;;;;;4160017;28;20049;-59
2022/12/17 23:16:33;;;;;;;;;;;13.90;68.60;;;;;;4162038;28;20060;-60
2022/12/17 23:19:14;;;;;;;56.95;30.08;;;14.00;68.70;;;;;;4144219;28;19932;-61
2022/12/17 23:21:55;;;;;;;53.15;30.35;;;14.00;68.80;;;;;;4160451;28;20048;-65
2022/12/17 23:24:37;;;;;;;59.38;31.92;;;14.10;68.50;;;;;;4161607;28;20405;-65
2022/12/17 23:27:18;;;;;;;54.90;30.45;;;14.20;68.30;;;;;;4161238;28;20122;-64
2022/12/17 23:29:59;;;;;;;49.67;28.83;;;14.10;68.10;;;;;;4161350;28;20400;-64
2022/12/17 23:32:41;;;;;;;;;;;14.20;68.00;;;;;;4161950;28;20056;-65
2022/12/17 23:35:22;;;;;;;55.17;29.23;;;14.30;67.90;;;;;;4161164;28;19931;-65
2022/12/17 23:38:03;;;;;;;52.00;30.23;;;14.40;67.80;;;;;;4160829;28;20111;-63
2022/12/17 23:40:45;;;;;;;56.10;29.83;;;14.50;67.30;;;;;;4161213;28;20091;-66
2022/12/17 23:43:30;;;;;;;51.53;27.90;;;14.50;66.70;;;;;;4161297;28;20052;-64
2022/12/17 23:46:11;;;;;;;48.33;26.85;;;14.50;66.40;;;;;;4160062;28;20175;-59
2022/12/17 23:48:53;;;;;;;47.58;27.85;;;14.60;66.20;;;;;;4159589;28;20076;-59
2022/12/17 23:51:33;;;;;;;50.25;27.42;;;14.60;66.40;;;;;;4160861;28;20052;-59
2022/12/17 23:54:14;;;;;;;47.05;25.15;;;14.60;66.30;;;;;;4161022;28;20053;-59
2022/12/17 23:56:57;;;;;;;50.13;28.55;;;14.60;66.20;;;;;;4160998;28;20520;-59
2022/12/17 23:59:38;;;;;;;48.00;27.20;;;14.60;66.20;;;;;;4160940;28;20048;-60
